sensor_id;sensor_type;location;lat;lon;timestamp;temperature;humidity
7000;DHT22;3540;53.242;10.408;2023-07-13T00:00:13;17.00;99.90
7000;DHT22;3540;53.242;10.408;2023-07-13T00:02:42;17.00;99.90
7000;DHT22;3540;53.242;10.408;2023-07-13T00:05:08;17.00;99.90
7000;DHT22;3540;53.242;10.408;2023-07-13T00:07:35;16.90;99.90
7000;DHT22;3540;53.242;10.408;2023-07-13T00:10:00;16.80;99.90
7000;DHT22;3540;53.242;10.408;2023-07-13T00:12:32;16.70;99.90
7000;DHT22;3540;53.242;10.408;2023-07-13T00:15:00;16.60;99.90
7000;DHT22;3540;53.242;10.408;2023-07-13T00:17:27;16.60;99.90
7000;DHT22;3540;53.242;10.408;2023-07-13T00:19:54;16.50;99.90
7000;DHT22;3540;53.242;10.408;2023-07-13T00:22:21;16.50;99.90
7000;DHT22;3540;53.242;10.408;2023-07-13T00:24:47;16.40;99.90
7000;DHT22;3540;53.242;10.408;2023-07-13T00:27:13;16.40;99.90
7000;DHT22;3540;53.242;10.408;2023-07-13T00:29:39;16.40;99.90
7000;DHT22;3540;53.242;10.408;2023-07-13T00:32:05;16.40;99.90
7000;DHT22;3540;53.242;10.408;2023-07-13T00:34:31;16.30;99.90
7000;DHT22;3540;53.242;10.408;2023-07-13T00:36:57;16.40;99.90
7000;DHT22;3540;53.242;10.408;2023-07-13T00:39:23;16.40;99.90
7000;DHT22;3540;53.242;10.408;2023-07-13T00:41:49;16.40;99.90
7000;DHT22;3540;53.242;10.408;2023-07-13T00:44:17;16.40;99.90
7000;DHT22;3540;53.242;10.408;2023-07-13T00:46:43;16.30;99.90
7000;DHT22;3540;53.242;10.408;2023-07-13T00:49:13;16.30;99.90
7000;DHT22;3540;53.242;10.408;2023-07-13T00:51:45;16.20;99.90
7000;DHT22;3540;53.242;10.408;2023-07-13T00:54:19;16.20;99.90
7000;DHT22;3540;53.242;10.408;2023-07-13T00:56:49;16.10;99.90
7000;DHT22;3540;53.242;10.408;2023-07-13T00:59:17;16.10;99.90
7000;DHT22;3540;53.242;10.408;2023-07-13T01:01:44;16.00;99.90
7000;DHT22;3540;53.242;10.408;2023-07-13T01:04:10;16.00;99.90
7000;DHT22;3540;53.242;10.408;2023-07-13T01:06:37;16.00;99.90
7000;DHT22;3540;53.242;10.408;2023-07-13T01:09:04;15.90;99.90
7000;DHT22;3540;53.242;10.408;2023-07-13T01:11:31;15.90;99.90
7000;DHT22;3540;53.242;10.408;2023-07-13T01:13:57;15.80;99.90
7000;DHT22;3540;53.242;10.408;2023-07-13T01:16:29;15.80;99.90
7000;DHT22;3540;53.242;10.408;2023-07-13T01:18:56;15.70;99.90
7000;DHT22;3540;53.242;10.408;2023-07-13T01:21:27;15.70;99.90
7000;DHT22;3540;53.242;10.408;2023-07-13T01:23:53;15.70;99.90
7000;DHT22;3540;53.242;10.408;2023-07-13T01:26:19;15.60;99.90
7000;DHT22;3540;53.242;10.408;2023-07-13T01:28:45;15.60;99.90
7000;DHT22;3540;53.242;10.408;2023-07-13T01:31:11;15.50;99.90
7000;DHT22;3540;53.242;10.408;2023-07-13T01:33:39;15.50;99.90
7000;DHT22;3540;53.242;10.408;2023-07-13T01:36:09;15.50;99.90
7000;DHT22;3540;53.242;10.408;2023-07-13T01:38:36;15.40;99.90
7000;DHT22;3540;53.242;10.408;2023-07-13T01:41:02;15.40;99.90
7000;DHT22;3540;53.242;10.408;2023-07-13T01:43:28;15.30;99.90
7000;DHT22;3540;53.242;10.408;2023-07-13T01:45:54;15.30;99.90
7000;DHT22;3540;53.242;10.408;2023-07-13T01:48:20;15.20;99.90
7000;DHT22;3540;53.242;10.408;2023-07-13T01:50:46;15.20;99.90
7000;DHT22;3540;53.242;10.408;2023-07-13T01:53:12;15.20;99.90
7000;DHT22;3540;53.242;10.408;2023-07-13T01:55:37;15.10;99.90
7000;DHT22;3540;53.242;10.408;2023-07-13T01:58:04;15.20;99.90
7000;DHT22;3540;53.242;10.408;2023-07-13T02:00:30;15.10;99.90
7000;DHT22;3540;53.242;10.408;2023-07-13T02:02:56;15.10;99.90
7000;DHT22;3540;53.242;10.408;2023-07-13T02:05:23;15.00;99.90
7000;DHT22;3540;53.242;10.408;2023-07-13T02:07:49;14.90;99.90
7000;DHT22;3540;53.242;10.408;2023-07-13T02:10:14;14.90;99.90
7000;DHT22;3540;53.242;10.408;2023-07-13T02:12:41;14.80;99.90
7000;DHT22;3540;53.242;10.408;2023-07-13T02:15:07;14.80;99.90
7000;DHT22;3540;53.242;10.408;2023-07-13T02:17:34;14.80;99.90
7000;DHT22;3540;53.242;10.408;2023-07-13T02:20:00;14.70;99.90
7000;DHT22;3540;53.242;10.408;2023-07-13T02:22:25;14.70;99.90
7000;DHT22;3540;53.242;10.408;2023-07-13T02:24:51;14.70;99.90
7000;DHT22;3540;53.242;10.408;2023-07-13T02:27:17;14.60;99.90
7000;DHT22;3540;53.242;10.408;2023-07-13T02:29:43;14.60;99.90
7000;DHT22;3540;53.242;10.408;2023-07-13T02:32:08;14.60;99.90
7000;DHT22;3540;53.242;10.408;2023-07-13T02:34:34;14.50;99.90
7000;DHT22;3540;53.242;10.408;2023-07-13T02:37:00;14.50;99.90
7000;DHT22;3540;53.242;10.408;2023-07-13T02:39:26;14.50;99.90
7000;DHT22;3540;53.242;10.408;2023-07-13T02:41:51;14.40;99.90
7000;DHT22;3540;53.242;10.408;2023-07-13T02:44:17;14.40;99.90
7000;DHT22;3540;53.242;10.408;2023-07-13T02:46:43;14.40;99.90
7000;DHT22;3540;53.242;10.408;2023-07-13T02:49:09;14.40;99.90
7000;DHT22;3540;53.242;10.408;2023-07-13T02:51:35;14.40;99.90
7000;DHT22;3540;53.242;10.408;2023-07-13T02:54:04;14.40;99.90
7000;DHT22;3540;53.242;10.408;2023-07-13T02:56:31;14.40;99.90
7000;DHT22;3540;53.242;10.408;2023-07-13T02:58:57;14.30;99.90
7000;DHT22;3540;53.242;10.408;2023-07-13T03:01:23;14.30;99.90
7000;DHT22;3540;53.242;10.408;2023-07-13T03:03:50;14.30;99.90
7000;DHT22;3540;53.242;10.408;2023-07-13T03:06:16;14.20;99.90
7000;DHT22;3540;53.242;10.408;2023-07-13T03:08:43;14.20;99.90
7000;DHT22;3540;53.242;10.408;2023-07-13T03:11:15;14.20;99.90
7000;DHT22;3540;53.242;10.408;2023-07-13T03:13:42;14.30;99.90
7000;DHT22;3540;53.242;10.408;2023-07-13T03:16:08;14.20;99.90
7000;DHT22;3540;53.242;10.408;2023-07-13T03:18:35;14.20;99.90
7000;DHT22;3540;53.242;10.408;2023-07-13T03:21:01;14.20;99.90
7000;DHT22;3540;53.242;10.408;2023-07-13T03:23:27;14.10;99.90
7000;DHT22;3540;53.242;10.408;2023-07-13T03:26:10;14.10;99.90
7000;DHT22;3540;53.242;10.408;2023-07-13T03:28:37;14.10;99.90
7000;DHT22;3540;53.242;10.408;2023-07-13T03:31:14;14.10;99.90
7000;DHT22;3540;53.242;10.408;2023-07-13T03:33:40;14.10;99.90
7000;DHT22;3540;53.242;10.408;2023-07-13T03:36:07;14.10;99.90
7000;DHT22;3540;53.242;10.408;2023-07-13T03:38:34;14.20;99.90
7000;DHT22;3540;53.242;10.408;2023-07-13T03:41:00;14.30;99.90
7000;DHT22;3540;53.242;10.408;2023-07-13T03:43:26;14.30;99.90
7000;DHT22;3540;53.242;10.408;2023-07-13T03:45:52;14.30;99.90
7000;DHT22;3540;53.242;10.408;2023-07-13T03:48:17;14.30;99.90
7000;DHT22;3540;53.242;10.408;2023-07-13T03:50:43;14.20;99.90
7000;DHT22;3540;53.242;10.408;2023-07-13T03:53:09;14.20;99.90
7000;DHT22;3540;53.242;10.408;2023-07-13T03:55:34;14.20;99.90
7000;DHT22;3540;53.242;10.408;2023-07-13T03:58:27;14.20;99.90
7000;DHT22;3540;53.242;10.408;2023-07-13T04:00:54;14.20;99.90
7000;DHT22;3540;53.242;10.408;2023-07-13T04:03:20;14.20;99.90
7000;DHT22;3540;53.242;10.408;2023-07-13T04:05:46;14.30;99.90
7000;DHT22;3540;53.242;10.408;2023-07-13T04:08:12;14.30;99.90
7000;DHT22;3540;53.242;10.408;2023-07-13T04:10:38;14.30;99.90
7000;DHT22;3540;53.242;10.408;2023-07-13T04:13:04;14.40;99.90
7000;DHT22;3540;53.242;10.408;2023-07-13T04:15:31;14.40;99.90
7000;DHT22;3540;53.242;10.408;2023-07-13T04:17:57;14.40;99.90
7000;DHT22;3540;53.242;10.408;2023-07-13T04:20:24;14.50;99.90
7000;DHT22;3540;53.242;10.408;2023-07-13T04:22:51;14.60;99.90
7000;DHT22;3540;53.242;10.408;2023-07-13T04:25:17;14.70;99.90
7000;DHT22;3540;53.242;10.408;2023-07-13T04:27:42;14.70;99.90
7000;DHT22;3540;53.242;10.408;2023-07-13T04:30:08;14.80;99.90
7000;DHT22;3540;53.242;10.408;2023-07-13T04:32:34;14.90;99.90
7000;DHT22;3540;53.242;10.408;2023-07-13T04:35:00;14.90;99.90
7000;DHT22;3540;53.242;10.408;2023-07-13T04:37:26;15.10;99.90
7000;DHT22;3540;53.242;10.408;2023-07-13T04:39:52;15.20;99.90
7000;DHT22;3540;53.242;10.408;2023-07-13T04:42:18;15.20;99.90
7000;DHT22;3540;53.242;10.408;2023-07-13T04:44:48;15.30;99.90
7000;DHT22;3540;53.242;10.408;2023-07-13T04:47:14;15.40;99.90
7000;DHT22;3540;53.242;10.408;2023-07-13T04:49:40;15.50;99.90
7000;DHT22;3540;53.242;10.408;2023-07-13T04:52:06;15.50;99.90
7000;DHT22;3540;53.242;10.408;2023-07-13T04:54:36;15.50;99.90
7000;DHT22;3540;53.242;10.408;2023-07-13T04:57:03;15.60;99.90
7000;DHT22;3540;53.242;10.408;2023-07-13T04:59:30;15.60;99.90
7000;DHT22;3540;53.242;10.408;2023-07-13T05:01:55;15.70;99.90
7000;DHT22;3540;53.242;10.408;2023-07-13T05:04:21;15.80;99.90
7000;DHT22;3540;53.242;10.408;2023-07-13T05:06:46;15.80;99.90
7000;DHT22;3540;53.242;10.408;2023-07-13T05:09:12;15.90;99.90
7000;DHT22;3540;53.242;10.408;2023-07-13T05:11:38;15.90;99.90
7000;DHT22;3540;53.242;10.408;2023-07-13T05:14:04;16.00;99.90
7000;DHT22;3540;53.242;10.408;2023-07-13T05:16:29;16.00;99.90
7000;DHT22;3540;53.242;10.408;2023-07-13T05:18:55;16.10;99.90
7000;DHT22;3540;53.242;10.408;2023-07-13T05:21:20;16.20;99.90
7000;DHT22;3540;53.242;10.408;2023-07-13T05:23:47;16.20;99.90
7000;DHT22;3540;53.242;10.408;2023-07-13T05:26:12;16.30;99.90
7000;DHT22;3540;53.242;10.408;2023-07-13T05:28:38;16.30;99.90
7000;DHT22;3540;53.242;10.408;2023-07-13T05:31:04;16.40;99.90
7000;DHT22;3540;53.242;10.408;2023-07-13T05:33:30;16.40;99.90
7000;DHT22;3540;53.242;10.408;2023-07-13T05:35:56;16.50;99.90
7000;DHT22;3540;53.242;10.408;2023-07-13T05:38:22;16.50;99.90
7000;DHT22;3540;53.242;10.408;2023-07-13T05:40:47;16.60;99.90
7000;DHT22;3540;53.242;10.408;2023-07-13T05:43:14;16.70;99.90
7000;DHT22;3540;53.242;10.408;2023-07-13T05:45:40;16.70;99.90
7000;DHT22;3540;53.242;10.408;2023-07-13T05:48:07;16.80;99.90
7000;DHT22;3540;53.242;10.408;2023-07-13T05:50:32;16.80;99.90
7000;DHT22;3540;53.242;10.408;2023-07-13T05:52:58;16.90;99.90
7000;DHT22;3540;53.242;10.408;2023-07-13T05:55:24;16.90;99.90
7000;DHT22;3540;53.242;10.408;2023-07-13T05:57:49;17.00;99.90
7000;DHT22;3540;53.242;10.408;2023-07-13T06:00:15;17.00;99.90
7000;DHT22;3540;53.242;10.408;2023-07-13T06:02:41;17.10;99.90
7000;DHT22;3540;53.242;10.408;2023-07-13T06:05:07;17.10;99.90
7000;DHT22;3540;53.242;10.408;2023-07-13T06:07:33;17.10;99.90
7000;DHT22;3540;53.242;10.408;2023-07-13T06:09:59;17.10;99.90
7000;DHT22;3540;53.242;10.408;2023-07-13T06:12:25;17.20;99.90
7000;DHT22;3540;53.242;10.408;2023-07-13T06:14:51;17.20;99.90
7000;DHT22;3540;53.242;10.408;2023-07-13T06:17:17;17.30;99.90
7000;DHT22;3540;53.242;10.408;2023-07-13T06:19:43;17.30;99.90
7000;DHT22;3540;53.242;10.408;2023-07-13T06:22:08;17.30;99.90
7000;DHT22;3540;53.242;10.408;2023-07-13T06:24:34;17.40;99.90
7000;DHT22;3540;53.242;10.408;2023-07-13T06:27:00;17.50;99.90
7000;DHT22;3540;53.242;10.408;2023-07-13T06:29:25;17.50;99.90
7000;DHT22;3540;53.242;10.408;2023-07-13T06:31:51;17.60;99.90
7000;DHT22;3540;53.242;10.408;2023-07-13T06:34:17;17.70;99.90
7000;DHT22;3540;53.242;10.408;2023-07-13T06:36:43;17.70;99.90
7000;DHT22;3540;53.242;10.408;2023-07-13T06:39:08;17.70;99.90
7000;DHT22;3540;53.242;10.408;2023-07-13T06:41:34;17.80;99.90
7000;DHT22;3540;53.242;10.408;2023-07-13T06:44:00;17.80;99.90
7000;DHT22;3540;53.242;10.408;2023-07-13T06:46:25;18.00;99.90
7000;DHT22;3540;53.242;10.408;2023-07-13T06:48:51;18.10;99.90
7000;DHT22;3540;53.242;10.408;2023-07-13T06:51:17;18.20;99.90
7000;DHT22;3540;53.242;10.408;2023-07-13T06:53:42;18.20;99.90
7000;DHT22;3540;53.242;10.408;2023-07-13T06:56:10;18.20;99.90
7000;DHT22;3540;53.242;10.408;2023-07-13T06:58:36;18.30;99.90
7000;DHT22;3540;53.242;10.408;2023-07-13T07:01:03;18.30;99.90
7000;DHT22;3540;53.242;10.408;2023-07-13T07:03:29;18.40;99.90
7000;DHT22;3540;53.242;10.408;2023-07-13T07:06:00;18.40;99.90
7000;DHT22;3540;53.242;10.408;2023-07-13T07:08:26;18.50;99.90
7000;DHT22;3540;53.242;10.408;2023-07-13T07:10:51;18.50;99.90
7000;DHT22;3540;53.242;10.408;2023-07-13T07:13:19;18.60;99.90
7000;DHT22;3540;53.242;10.408;2023-07-13T07:15:45;18.60;99.90
7000;DHT22;3540;53.242;10.408;2023-07-13T07:18:11;18.70;99.90
7000;DHT22;3540;53.242;10.408;2023-07-13T07:20:36;18.90;99.90
7000;DHT22;3540;53.242;10.408;2023-07-13T07:23:02;19.10;99.90
7000;DHT22;3540;53.242;10.408;2023-07-13T07:25:27;19.30;99.90
7000;DHT22;3540;53.242;10.408;2023-07-13T07:27:57;19.40;99.90
7000;DHT22;3540;53.242;10.408;2023-07-13T07:30:24;19.60;99.90
7000;DHT22;3540;53.242;10.408;2023-07-13T07:32:49;19.70;99.90
7000;DHT22;3540;53.242;10.408;2023-07-13T07:35:15;19.80;99.90
7000;DHT22;3540;53.242;10.408;2023-07-13T07:37:41;19.70;99.90
7000;DHT22;3540;53.242;10.408;2023-07-13T07:40:07;19.60;99.90
7000;DHT22;3540;53.242;10.408;2023-07-13T07:42:33;19.70;99.90
7000;DHT22;3540;53.242;10.408;2023-07-13T07:44:59;19.60;99.90
7000;DHT22;3540;53.242;10.408;2023-07-13T07:47:26;19.80;99.90
7000;DHT22;3540;53.242;10.408;2023-07-13T07:49:52;19.90;99.90
7000;DHT22;3540;53.242;10.408;2023-07-13T07:52:18;20.10;99.90
7000;DHT22;3540;53.242;10.408;2023-07-13T07:54:44;20.10;99.90
7000;DHT22;3540;53.242;10.408;2023-07-13T07:57:09;20.10;99.90
7000;DHT22;3540;53.242;10.408;2023-07-13T07:59:36;20.20;99.90
7000;DHT22;3540;53.242;10.408;2023-07-13T08:02:02;20.10;99.90
7000;DHT22;3540;53.242;10.408;2023-07-13T08:04:28;19.80;99.90
7000;DHT22;3540;53.242;10.408;2023-07-13T08:06:54;19.60;99.90
7000;DHT22;3540;53.242;10.408;2023-07-13T08:09:21;19.70;99.90
7000;DHT22;3540;53.242;10.408;2023-07-13T08:11:47;19.80;99.90
7000;DHT22;3540;53.242;10.408;2023-07-13T08:14:13;19.80;99.90
7000;DHT22;3540;53.242;10.408;2023-07-13T08:16:39;20.20;99.90
7000;DHT22;3540;53.242;10.408;2023-07-13T08:19:04;20.30;99.90
7000;DHT22;3540;53.242;10.408;2023-07-13T08:21:31;20.10;99.90
7000;DHT22;3540;53.242;10.408;2023-07-13T08:23:57;19.90;99.90
7000;DHT22;3540;53.242;10.408;2023-07-13T08:26:23;19.80;99.90
7000;DHT22;3540;53.242;10.408;2023-07-13T08:28:48;19.80;99.90
7000;DHT22;3540;53.242;10.408;2023-07-13T08:31:14;19.80;99.90
7000;DHT22;3540;53.242;10.408;2023-07-13T08:33:40;20.30;99.90
7000;DHT22;3540;53.242;10.408;2023-07-13T08:36:06;20.60;99.90
7000;DHT22;3540;53.242;10.408;2023-07-13T08:38:33;20.70;99.90
7000;DHT22;3540;53.242;10.408;2023-07-13T08:40:59;20.70;99.90
7000;DHT22;3540;53.242;10.408;2023-07-13T08:43:30;20.60;99.90
7000;DHT22;3540;53.242;10.408;2023-07-13T08:48:35;20.80;99.90
7000;DHT22;3540;53.242;10.408;2023-07-13T08:53:38;21.00;99.90
7000;DHT22;3540;53.242;10.408;2023-07-13T08:56:09;21.30;99.90
7000;DHT22;3540;53.242;10.408;2023-07-13T08:58:38;21.10;99.90
7000;DHT22;3540;53.242;10.408;2023-07-13T09:06:34;21.50;99.90
7000;DHT22;3540;53.242;10.408;2023-07-13T09:09:14;21.70;99.90
7000;DHT22;3540;53.242;10.408;2023-07-13T09:12:09;21.90;99.90
7000;DHT22;3540;53.242;10.408;2023-07-13T09:14:40;21.60;99.90
7000;DHT22;3540;53.242;10.408;2023-07-13T09:17:19;21.50;99.90
7000;DHT22;3540;53.242;10.408;2023-07-13T09:19:56;21.20;99.90
7000;DHT22;3540;53.242;10.408;2023-07-13T09:22:24;21.50;99.90
7000;DHT22;3540;53.242;10.408;2023-07-13T09:25:27;21.50;99.90
7000;DHT22;3540;53.242;10.408;2023-07-13T09:28:20;21.60;99.90
7000;DHT22;3540;53.242;10.408;2023-07-13T09:30:56;21.60;99.90
7000;DHT22;3540;53.242;10.408;2023-07-13T09:33:24;21.40;99.90
7000;DHT22;3540;53.242;10.408;2023-07-13T09:35:50;21.60;99.90
7000;DHT22;3540;53.242;10.408;2023-07-13T09:38:18;22.00;99.90
7000;DHT22;3540;53.242;10.408;2023-07-13T09:43:24;21.90;99.90
7000;DHT22;3540;53.242;10.408;2023-07-13T09:45:50;21.50;99.90
7000;DHT22;3540;53.242;10.408;2023-07-13T09:48:17;21.40;99.90
7000;DHT22;3540;53.242;10.408;2023-07-13T09:50:44;21.40;99.90
7000;DHT22;3540;53.242;10.408;2023-07-13T09:53:19;21.40;99.90
7000;DHT22;3540;53.242;10.408;2023-07-13T09:55:47;21.30;99.90
7000;DHT22;3540;53.242;10.408;2023-07-13T09:58:20;21.20;99.90
7000;DHT22;3540;53.242;10.408;2023-07-13T10:01:02;21.10;99.90
7000;DHT22;3540;53.242;10.408;2023-07-13T10:03:33;21.10;99.90
7000;DHT22;3540;53.242;10.408;2023-07-13T10:08:37;20.60;99.90
7000;DHT22;3540;53.242;10.408;2023-07-13T10:11:27;20.50;99.90
7000;DHT22;3540;53.242;10.408;2023-07-13T10:14:02;20.40;99.90
7000;DHT22;3540;53.242;10.408;2023-07-13T10:16:30;20.60;99.90
7000;DHT22;3540;53.242;10.408;2023-07-13T10:19:24;20.80;99.90
7000;DHT22;3540;53.242;10.408;2023-07-13T10:22:00;21.10;99.90
7000;DHT22;3540;53.242;10.408;2023-07-13T10:24:31;21.40;99.90
7000;DHT22;3540;53.242;10.408;2023-07-13T10:27:01;21.80;99.90
7000;DHT22;3540;53.242;10.408;2023-07-13T10:29:32;21.70;99.90
7000;DHT22;3540;53.242;10.408;2023-07-13T10:32:00;21.90;99.90
7000;DHT22;3540;53.242;10.408;2023-07-13T10:34:26;22.30;99.90
7000;DHT22;3540;53.242;10.408;2023-07-13T10:36:52;22.40;99.90
7000;DHT22;3540;53.242;10.408;2023-07-13T10:39:19;22.60;99.90
7000;DHT22;3540;53.242;10.408;2023-07-13T10:42:01;22.80;99.90
7000;DHT22;3540;53.242;10.408;2023-07-13T10:44:31;22.80;99.90
7000;DHT22;3540;53.242;10.408;2023-07-13T10:47:02;23.10;99.90
7000;DHT22;3540;53.242;10.408;2023-07-13T10:49:30;23.40;99.90
7000;DHT22;3540;53.242;10.408;2023-07-13T10:51:56;23.60;99.90
7000;DHT22;3540;53.242;10.408;2023-07-13T10:54:28;23.80;99.90
7000;DHT22;3540;53.242;10.408;2023-07-13T10:57:18;23.40;99.90
7000;DHT22;3540;53.242;10.408;2023-07-13T11:00:10;23.40;99.90
7000;DHT22;3540;53.242;10.408;2023-07-13T11:02:35;23.40;99.90
7000;DHT22;3540;53.242;10.408;2023-07-13T11:05:20;23.10;99.90
7000;DHT22;3540;53.242;10.408;2023-07-13T11:08:19;23.20;99.90
7000;DHT22;3540;53.242;10.408;2023-07-13T11:10:52;23.30;99.90
7000;DHT22;3540;53.242;10.408;2023-07-13T11:16:13;24.10;99.90
7000;DHT22;3540;53.242;10.408;2023-07-13T11:18:38;23.90;99.90
7000;DHT22;3540;53.242;10.408;2023-07-13T11:21:21;23.50;99.90
7000;DHT22;3540;53.242;10.408;2023-07-13T11:26:51;23.10;99.90
7000;DHT22;3540;53.242;10.408;2023-07-13T11:31:49;23.60;99.90
7000;DHT22;3540;53.242;10.408;2023-07-13T11:34:18;23.60;99.90
7000;DHT22;3540;53.242;10.408;2023-07-13T11:36:47;23.80;99.90
7000;DHT22;3540;53.242;10.408;2023-07-13T11:41:49;24.10;99.90
7000;DHT22;3540;53.242;10.408;2023-07-13T11:44:20;23.90;99.90
7000;DHT22;3540;53.242;10.408;2023-07-13T11:46:48;24.10;99.90
7000;DHT22;3540;53.242;10.408;2023-07-13T11:49:23;24.10;99.90
7000;DHT22;3540;53.242;10.408;2023-07-13T11:51:49;23.90;99.90
7000;DHT22;3540;53.242;10.408;2023-07-13T11:54:29;23.70;99.90
7000;DHT22;3540;53.242;10.408;2023-07-13T11:57:44;23.80;99.90
7000;DHT22;3540;53.242;10.408;2023-07-13T11:59:43;23.60;99.90
7000;DHT22;3540;53.242;10.408;2023-07-13T12:02:25;23.50;99.90
7000;DHT22;3540;53.242;10.408;2023-07-13T12:04:51;23.70;99.90
7000;DHT22;3540;53.242;10.408;2023-07-13T12:07:18;23.80;99.90
7000;DHT22;3540;53.242;10.408;2023-07-13T12:09:44;24.10;99.90
7000;DHT22;3540;53.242;10.408;2023-07-13T12:12:16;24.40;99.90
7000;DHT22;3540;53.242;10.408;2023-07-13T12:14:43;24.70;99.90
7000;DHT22;3540;53.242;10.408;2023-07-13T12:17:16;24.40;99.90
7000;DHT22;3540;53.242;10.408;2023-07-13T12:19:42;24.30;99.90
7000;DHT22;3540;53.242;10.408;2023-07-13T12:22:12;24.50;99.90
7000;DHT22;3540;53.242;10.408;2023-07-13T12:24:40;24.60;99.90
7000;DHT22;3540;53.242;10.408;2023-07-13T12:30:02;23.90;99.90
7000;DHT22;3540;53.242;10.408;2023-07-13T12:32:31;23.30;99.90
7000;DHT22;3540;53.242;10.408;2023-07-13T12:35:04;22.90;99.90
7000;DHT22;3540;53.242;10.408;2023-07-13T12:37:34;22.80;99.90
7000;DHT22;3540;53.242;10.408;2023-07-13T12:40:01;22.70;99.90
7000;DHT22;3540;53.242;10.408;2023-07-13T12:42:32;22.80;99.90
7000;DHT22;3540;53.242;10.408;2023-07-13T12:45:05;22.80;99.90
7000;DHT22;3540;53.242;10.408;2023-07-13T12:47:42;22.60;99.90
7000;DHT22;3540;53.242;10.408;2023-07-13T12:50:18;22.70;99.90
7000;DHT22;3540;53.242;10.408;2023-07-13T12:52:44;22.60;99.90
7000;DHT22;3540;53.242;10.408;2023-07-13T12:55:18;22.30;99.90
7000;DHT22;3540;53.242;10.408;2023-07-13T12:57:55;22.10;99.90
7000;DHT22;3540;53.242;10.408;2023-07-13T13:00:36;21.80;99.90
7000;DHT22;3540;53.242;10.408;2023-07-13T13:03:18;21.60;99.90
7000;DHT22;3540;53.242;10.408;2023-07-13T13:05:45;20.40;99.90
7000;DHT22;3540;53.242;10.408;2023-07-13T13:08:11;18.80;99.90
7000;DHT22;3540;53.242;10.408;2023-07-13T13:10:37;17.50;99.90
7000;DHT22;3540;53.242;10.408;2023-07-13T13:13:03;16.80;99.90
7000;DHT22;3540;53.242;10.408;2023-07-13T13:15:29;16.50;99.90
7000;DHT22;3540;53.242;10.408;2023-07-13T13:17:56;16.20;99.90
7000;DHT22;3540;53.242;10.408;2023-07-13T13:20:24;16.10;99.90
7000;DHT22;3540;53.242;10.408;2023-07-13T13:22:51;16.10;99.90
7000;DHT22;3540;53.242;10.408;2023-07-13T13:25:18;16.10;99.90
7000;DHT22;3540;53.242;10.408;2023-07-13T13:27:45;16.10;99.90
7000;DHT22;3540;53.242;10.408;2023-07-13T13:30:12;16.20;99.90
7000;DHT22;3540;53.242;10.408;2023-07-13T13:32:43;16.40;99.90
7000;DHT22;3540;53.242;10.408;2023-07-13T13:35:17;16.60;99.90
7000;DHT22;3540;53.242;10.408;2023-07-13T13:37:43;16.90;99.90
7000;DHT22;3540;53.242;10.408;2023-07-13T13:40:21;17.00;99.90
7000;DHT22;3540;53.242;10.408;2023-07-13T13:42:48;17.10;99.90
7000;DHT22;3540;53.242;10.408;2023-07-13T13:45:14;17.20;99.90
7000;DHT22;3540;53.242;10.408;2023-07-13T13:47:43;17.50;99.90
7000;DHT22;3540;53.242;10.408;2023-07-13T13:50:15;17.80;99.90
7000;DHT22;3540;53.242;10.408;2023-07-13T13:52:42;17.70;99.90
7000;DHT22;3540;53.242;10.408;2023-07-13T13:55:16;17.50;99.90
7000;DHT22;3540;53.242;10.408;2023-07-13T13:57:42;17.50;99.90
7000;DHT22;3540;53.242;10.408;2023-07-13T14:00:10;17.40;99.90
7000;DHT22;3540;53.242;10.408;2023-07-13T14:02:41;17.40;99.90
7000;DHT22;3540;53.242;10.408;2023-07-13T14:05:12;17.50;99.90
7000;DHT22;3540;53.242;10.408;2023-07-13T14:07:38;17.40;99.90
7000;DHT22;3540;53.242;10.408;2023-07-13T14:10:17;17.40;99.90
7000;DHT22;3540;53.242;10.408;2023-07-13T14:12:47;17.50;99.90
7000;DHT22;3540;53.242;10.408;2023-07-13T14:15:24;17.50;99.90
7000;DHT22;3540;53.242;10.408;2023-07-13T14:17:51;17.50;99.90
7000;DHT22;3540;53.242;10.408;2023-07-13T14:20:19;17.50;99.90
7000;DHT22;3540;53.242;10.408;2023-07-13T14:22:45;17.60;99.90
7000;DHT22;3540;53.242;10.408;2023-07-13T14:25:12;17.70;99.90
7000;DHT22;3540;53.242;10.408;2023-07-13T14:27:38;17.70;99.90
7000;DHT22;3540;53.242;10.408;2023-07-13T14:30:15;17.70;99.90
7000;DHT22;3540;53.242;10.408;2023-07-13T14:32:42;17.70;99.90
7000;DHT22;3540;53.242;10.408;2023-07-13T14:35:11;17.80;99.90
7000;DHT22;3540;53.242;10.408;2023-07-13T14:37:38;17.80;99.90
7000;DHT22;3540;53.242;10.408;2023-07-13T14:42:38;18.00;99.90
7000;DHT22;3540;53.242;10.408;2023-07-13T14:45:04;18.00;99.90
7000;DHT22;3540;53.242;10.408;2023-07-13T14:47:30;18.00;99.90
7000;DHT22;3540;53.242;10.408;2023-07-13T14:49:56;18.10;99.90
7000;DHT22;3540;53.242;10.408;2023-07-13T14:52:23;18.00;99.90
7000;DHT22;3540;53.242;10.408;2023-07-13T14:54:50;18.00;99.90
7000;DHT22;3540;53.242;10.408;2023-07-13T14:57:18;18.00;99.90
7000;DHT22;3540;53.242;10.408;2023-07-13T14:59:47;18.00;99.90
7000;DHT22;3540;53.242;10.408;2023-07-13T15:02:33;18.00;99.90
7000;DHT22;3540;53.242;10.408;2023-07-13T15:05:00;18.10;99.90
7000;DHT22;3540;53.242;10.408;2023-07-13T15:07:26;18.20;99.90
7000;DHT22;3540;53.242;10.408;2023-07-13T15:09:52;18.30;99.90
7000;DHT22;3540;53.242;10.408;2023-07-13T15:12:18;18.40;99.90
7000;DHT22;3540;53.242;10.408;2023-07-13T15:14:45;18.60;99.90
7000;DHT22;3540;53.242;10.408;2023-07-13T15:17:36;18.50;99.90
7000;DHT22;3540;53.242;10.408;2023-07-13T15:22:42;18.70;99.90
7000;DHT22;3540;53.242;10.408;2023-07-13T15:25:27;18.80;99.90
7000;DHT22;3540;53.242;10.408;2023-07-13T15:27:55;18.70;99.90
7000;DHT22;3540;53.242;10.408;2023-07-13T15:30:21;18.80;99.90
7000;DHT22;3540;53.242;10.408;2023-07-13T15:32:48;18.70;99.90
7000;DHT22;3540;53.242;10.408;2023-07-13T15:35:25;18.70;99.90
7000;DHT22;3540;53.242;10.408;2023-07-13T15:37:52;18.80;99.90
7000;DHT22;3540;53.242;10.408;2023-07-13T15:40:18;18.80;99.90
7000;DHT22;3540;53.242;10.408;2023-07-13T15:42:47;19.20;99.90
7000;DHT22;3540;53.242;10.408;2023-07-13T15:45:18;19.50;99.90
7000;DHT22;3540;53.242;10.408;2023-07-13T15:47:46;19.70;99.90
7000;DHT22;3540;53.242;10.408;2023-07-13T15:50:17;19.70;99.90
7000;DHT22;3540;53.242;10.408;2023-07-13T15:52:46;19.70;99.90
7000;DHT22;3540;53.242;10.408;2023-07-13T15:55:13;20.10;99.90
7000;DHT22;3540;53.242;10.408;2023-07-13T15:57:49;20.60;99.90
7000;DHT22;3540;53.242;10.408;2023-07-13T16:00:27;20.70;99.90
7000;DHT22;3540;53.242;10.408;2023-07-13T16:02:53;21.10;99.90
7000;DHT22;3540;53.242;10.408;2023-07-13T16:05:21;21.80;99.90
7000;DHT22;3540;53.242;10.408;2023-07-13T16:07:49;22.60;99.90
7000;DHT22;3540;53.242;10.408;2023-07-13T16:10:22;23.00;99.90
7000;DHT22;3540;53.242;10.408;2023-07-13T16:12:48;23.50;99.90
7000;DHT22;3540;53.242;10.408;2023-07-13T16:15:17;23.60;99.90
7000;DHT22;3540;53.242;10.408;2023-07-13T16:17:47;23.80;99.90
7000;DHT22;3540;53.242;10.408;2023-07-13T16:20:15;24.20;99.90
7000;DHT22;3540;53.242;10.408;2023-07-13T16:22:45;25.00;99.90
7000;DHT22;3540;53.242;10.408;2023-07-13T16:25:29;26.10;99.90
7000;DHT22;3540;53.242;10.408;2023-07-13T16:27:56;27.00;99.90